createdAt,value
2023-04-07T00:00:44.712Z,17.06
2023-04-07T00:01:44.765Z,17.07
2023-04-07T00:02:44.896Z,17.07
2023-04-07T00:03:44.862Z,17.08
2023-04-07T00:04:44.774Z,17.03
2023-04-07T00:05:44.698Z,17.03
2023-04-07T00:06:44.694Z,17.01
2023-04-07T00:07:55.092Z,17.03
2023-04-07T00:08:44.680Z,17.04
2023-04-07T00:09:44.680Z,17.01
2023-04-07T00:10:44.685Z,17.00
2023-04-07T00:11:44.664Z,17.07
2023-04-07T00:12:44.667Z,17.07
2023-04-07T00:13:44.662Z,17.01
2023-04-07T00:14:44.656Z,17.07
2023-04-07T00:15:44.664Z,17.03
2023-04-07T00:16:44.643Z,17.01
2023-04-07T00:17:44.755Z,17.11
2023-04-07T00:18:44.653Z,17.03
2023-04-07T00:19:44.643Z,17.07
2023-04-07T00:20:44.624Z,17.06
2023-04-07T00:21:44.630Z,17.03
2023-04-07T00:22:44.636Z,17.01
2023-04-07T00:23:44.632Z,16.98
2023-04-07T00:24:44.645Z,17.03
2023-04-07T00:25:44.614Z,17.08
2023-04-07T00:26:44.646Z,17.07
2023-04-07T00:27:44.613Z,16.91
2023-04-07T00:28:44.607Z,17.06
2023-04-07T00:29:44.606Z,17.07
2023-04-07T00:30:44.577Z,16.98
2023-04-07T00:31:44.711Z,17.03
2023-04-07T00:32:45.612Z,17.06
2023-04-07T00:33:44.566Z,17.01
2023-04-07T00:34:44.577Z,17.04
2023-04-07T00:35:44.581Z,17.06
2023-04-07T00:36:44.570Z,17.00
2023-04-07T00:37:44.557Z,17.07
2023-04-07T00:38:44.552Z,17.04
2023-04-07T00:39:44.551Z,17.08
2023-04-07T00:40:44.562Z,17.01
2023-04-07T00:41:44.554Z,17.08
2023-04-07T00:42:44.560Z,17.03
2023-04-07T00:43:44.527Z,17.01
2023-04-07T00:44:44.528Z,17.06
2023-04-07T00:45:44.530Z,17.03
2023-04-07T00:46:44.581Z,17.06
2023-04-07T00:47:44.544Z,17.07
2023-04-07T00:48:44.517Z,17.08
2023-04-07T00:49:44.501Z,17.04
2023-04-07T00:50:44.527Z,17.01
2023-04-07T00:51:44.504Z,17.06
2023-04-07T00:52:44.490Z,16.97
2023-04-07T00:53:44.497Z,17.04
2023-04-07T00:54:44.484Z,17.03
2023-04-07T00:55:44.485Z,17.03
2023-04-07T00:56:44.475Z,17.07
2023-04-07T00:57:44.487Z,17.04
2023-04-07T00:58:44.477Z,17.01
2023-04-07T00:59:44.474Z,17.06
2023-04-07T01:00:44.471Z,17.07
2023-04-07T01:01:44.487Z,17.06
2023-04-07T01:02:44.842Z,17.04
2023-04-07T01:03:44.800Z,17.06
2023-04-07T01:04:44.513Z,17.06
2023-04-07T01:05:44.429Z,16.97
2023-04-07T01:06:44.437Z,17.07
2023-04-07T01:07:44.424Z,17.06
2023-04-07T01:08:44.426Z,17.06
2023-04-07T01:09:44.426Z,16.93
2023-04-07T01:10:44.413Z,16.97
2023-04-07T01:11:44.406Z,16.94
2023-04-07T01:12:44.410Z,17.04
2023-04-07T01:13:44.400Z,17.08
2023-04-07T01:14:44.417Z,16.94
2023-04-07T01:15:44.421Z,17.07
2023-04-07T01:16:44.373Z,17.04
2023-04-07T01:17:44.436Z,17.04
2023-04-07T01:18:44.381Z,17.07
2023-04-07T01:19:44.382Z,17.01
2023-04-07T01:20:44.384Z,17.07
2023-04-07T01:21:44.372Z,16.97
2023-04-07T01:22:44.345Z,17.08
2023-04-07T01:23:44.364Z,17.06
2023-04-07T01:24:44.347Z,17.07
2023-04-07T01:25:44.338Z,17.06
2023-04-07T01:26:44.345Z,17.06
2023-04-07T01:27:44.352Z,16.98
2023-04-07T01:28:44.341Z,16.97
2023-04-07T01:29:44.317Z,16.96
2023-04-07T01:30:44.375Z,16.91
2023-04-07T01:31:44.453Z,17.00
2023-04-07T01:32:44.325Z,17.03
2023-04-07T01:33:44.308Z,16.96
2023-04-07T01:34:44.307Z,17.06
2023-04-07T01:35:44.315Z,17.06
2023-04-07T01:36:44.350Z,17.06
2023-04-07T01:37:44.285Z,17.04
2023-04-07T01:38:44.297Z,17.03
2023-04-07T01:39:44.305Z,17.07
2023-04-07T01:40:44.282Z,17.11
2023-04-07T01:41:44.264Z,17.06
2023-04-07T01:42:44.264Z,16.96
2023-04-07T01:43:45.124Z,17.06
2023-04-07T01:44:44.271Z,17.01
2023-04-07T01:45:44.271Z,16.94
2023-04-07T01:46:44.371Z,17.06
2023-04-07T01:47:44.274Z,17.06
2023-04-07T01:48:44.248Z,17.07
2023-04-07T01:49:44.237Z,17.03
2023-04-07T01:50:44.243Z,17.03
2023-04-07T01:51:44.240Z,17.07
2023-04-07T01:52:44.224Z,16.97
2023-04-07T01:53:44.240Z,16.98
2023-04-07T01:54:44.221Z,17.01
2023-04-07T01:55:44.219Z,17.06
2023-04-07T01:56:44.222Z,17.03
2023-04-07T01:57:44.201Z,17.04
2023-04-07T01:58:44.212Z,17.01
2023-04-07T01:59:44.209Z,17.06
2023-04-07T02:00:44.267Z,17.07
2023-04-07T02:01:44.414Z,17.03
2023-04-07T02:02:44.386Z,17.01
2023-04-07T02:03:44.267Z,17.07
2023-04-07T02:04:44.185Z,16.96
2023-04-07T02:05:44.184Z,17.08
2023-04-07T02:06:44.186Z,17.03
2023-04-07T02:07:44.173Z,16.94
2023-04-07T02:08:44.157Z,17.07
2023-04-07T02:09:44.173Z,17.06
2023-04-07T02:10:44.145Z,17.06
2023-04-07T02:11:44.162Z,17.00
2023-04-07T02:12:44.149Z,17.06
2023-04-07T02:13:44.139Z,17.08
2023-04-07T02:14:44.126Z,17.03
2023-04-07T02:15:44.135Z,17.08
2023-04-07T02:16:45.207Z,16.97
2023-04-07T02:17:44.182Z,17.08
2023-04-07T02:18:44.141Z,17.06
2023-04-07T02:19:44.118Z,17.00
2023-04-07T02:20:44.113Z,17.04
2023-04-07T02:21:44.104Z,17.04
2023-04-07T02:22:44.104Z,16.96
2023-04-07T02:23:44.086Z,17.03
2023-04-07T02:24:44.079Z,16.93
2023-04-07T02:25:44.095Z,17.06
2023-04-07T02:26:44.088Z,17.03
2023-04-07T02:27:44.083Z,17.04
2023-04-07T02:28:44.074Z,17.04
2023-04-07T02:29:44.065Z,17.06
2023-04-07T02:30:44.067Z,16.91
2023-04-07T02:31:44.123Z,17.08
2023-04-07T02:32:44.089Z,17.06
2023-04-07T02:33:44.048Z,16.94
2023-04-07T02:34:44.074Z,17.04
2023-04-07T02:35:44.047Z,17.07
2023-04-07T02:36:44.094Z,17.03
2023-04-07T02:37:44.043Z,17.08
2023-04-07T02:38:44.017Z,17.04
2023-04-07T02:39:44.043Z,17.07
2023-04-07T02:40:44.042Z,16.97
2023-04-07T02:41:44.001Z,17.04
2023-04-07T02:42:43.996Z,16.96
2023-04-07T02:43:44.023Z,16.94
2023-04-07T02:44:44.006Z,16.94
2023-04-07T02:45:44.021Z,17.03
2023-04-07T02:46:43.997Z,16.97
2023-04-07T02:47:44.046Z,17.06
2023-04-07T02:48:43.986Z,17.04
2023-04-07T02:49:43.986Z,17.01
2023-04-07T02:50:43.983Z,16.98
2023-04-07T02:51:43.974Z,17.06
2023-04-07T02:52:43.967Z,16.94
2023-04-07T02:53:43.953Z,16.93
2023-04-07T02:54:43.950Z,16.96
2023-04-07T02:55:43.947Z,17.01
2023-04-07T02:56:43.935Z,16.97
2023-04-07T02:57:43.935Z,17.04
2023-04-07T02:58:43.934Z,16.98
2023-04-07T02:59:43.939Z,17.06
2023-04-07T03:00:43.914Z,17.04
2023-04-07T03:01:43.986Z,16.96
2023-04-07T03:02:44.095Z,16.93
2023-04-07T03:03:44.010Z,16.94
2023-04-07T03:04:43.927Z,16.97
2023-04-07T03:05:43.919Z,16.98
2023-04-07T03:06:43.925Z,16.98
2023-04-07T03:07:43.909Z,17.06
2023-04-07T03:08:43.887Z,16.89
2023-04-07T03:09:43.879Z,17.01
2023-04-07T03:10:43.881Z,17.00
2023-04-07T03:11:43.882Z,16.97
2023-04-07T03:12:43.876Z,16.97
2023-04-07T03:13:43.876Z,17.00
2023-04-07T03:14:43.868Z,16.94
2023-04-07T03:15:43.865Z,16.96
2023-04-07T03:16:43.880Z,16.96
2023-04-07T03:17:43.869Z,16.97
2023-04-07T03:18:43.849Z,16.96
2023-04-07T03:19:43.862Z,17.01
2023-04-07T03:20:43.841Z,16.96
2023-04-07T03:21:43.842Z,16.97
2023-04-07T03:22:43.844Z,16.93
2023-04-07T03:23:43.841Z,16.97
2023-04-07T03:24:43.836Z,16.97
2023-04-07T03:25:43.822Z,16.97
2023-04-07T03:26:43.822Z,16.97
2023-04-07T03:27:43.819Z,16.97
2023-04-07T03:28:43.795Z,17.00
2023-04-07T03:29:43.800Z,16.96
2023-04-07T03:30:43.808Z,16.94
2023-04-07T03:31:43.798Z,16.98
2023-04-07T03:32:43.826Z,16.96
2023-04-07T03:33:43.779Z,16.94
2023-04-07T03:34:43.768Z,16.93
2023-04-07T03:35:43.825Z,16.98
2023-04-07T03:36:43.766Z,17.00
2023-04-07T03:37:43.773Z,16.94
2023-04-07T03:38:43.791Z,16.98
2023-04-07T03:39:43.749Z,16.94
2023-04-07T03:40:43.757Z,16.96
2023-04-07T03:41:43.758Z,17.01
2023-04-07T03:42:43.760Z,16.96
2023-04-07T03:43:43.749Z,16.96
2023-04-07T03:44:43.736Z,16.96
2023-04-07T03:45:43.728Z,17.01
2023-04-07T03:46:43.762Z,16.94
2023-04-07T03:47:43.761Z,16.94
2023-04-07T03:48:43.717Z,17.01
2023-04-07T03:49:43.736Z,16.97
2023-04-07T03:50:43.701Z,16.98
2023-04-07T03:51:43.803Z,16.97
2023-04-07T03:52:43.754Z,17.00
2023-04-07T03:53:43.684Z,16.98
2023-04-07T03:54:43.765Z,16.93
2023-04-07T03:55:43.681Z,16.94
2023-04-07T03:56:43.680Z,16.96
2023-04-07T03:57:43.674Z,17.03
2023-04-07T03:58:43.684Z,16.93
2023-04-07T03:59:43.693Z,16.94
2023-04-07T04:00:43.665Z,16.98
2023-04-07T04:01:43.715Z,17.04
2023-04-07T04:02:43.739Z,16.91
2023-04-07T04:03:43.759Z,16.98
2023-04-07T04:04:43.680Z,16.96
2023-04-07T04:05:43.647Z,16.98
2023-04-07T04:06:43.650Z,16.94
2023-04-07T04:07:43.634Z,16.98
2023-04-07T04:08:43.634Z,16.98
2023-04-07T04:09:43.639Z,16.98
2023-04-07T04:10:43.645Z,16.98
2023-04-07T04:11:43.625Z,16.97
2023-04-07T04:12:43.628Z,16.98
2023-04-07T04:13:43.598Z,16.89
2023-04-07T04:14:43.611Z,16.94
2023-04-07T04:15:43.628Z,16.89
2023-04-07T04:16:43.595Z,16.97
2023-04-07T04:17:43.629Z,16.89
2023-04-07T04:18:43.608Z,16.94
2023-04-07T04:19:43.587Z,16.89
2023-04-07T04:20:43.578Z,16.96
2023-04-07T04:21:43.577Z,16.93
2023-04-07T04:22:43.584Z,16.94
2023-04-07T04:23:43.564Z,16.91
2023-04-07T04:24:43.572Z,16.91
2023-04-07T04:25:43.564Z,17.00
2023-04-07T04:26:43.558Z,16.94
2023-04-07T04:27:43.546Z,16.93
2023-04-07T04:28:43.547Z,16.88
2023-04-07T04:29:43.526Z,16.91
2023-04-07T04:30:43.544Z,16.98
2023-04-07T04:31:43.696Z,16.93
2023-04-07T04:32:43.587Z,16.98
2023-04-07T04:33:43.519Z,17.00
2023-04-07T04:34:43.532Z,17.01
2023-04-07T04:35:43.514Z,16.94
2023-04-07T04:36:43.520Z,16.89
2023-04-07T04:37:43.496Z,16.97
2023-04-07T04:38:43.494Z,16.96
2023-04-07T04:39:43.499Z,16.94
2023-04-07T04:40:43.487Z,16.96
2023-04-07T04:41:43.485Z,16.93
2023-04-07T04:42:43.510Z,16.96
2023-04-07T04:43:43.490Z,16.94
2023-04-07T04:44:43.469Z,16.98
2023-04-07T04:45:43.472Z,16.97
2023-04-07T04:46:43.490Z,16.98
2023-04-07T04:47:43.483Z,16.97
2023-04-07T04:48:43.455Z,16.89
2023-04-07T04:49:43.456Z,16.97
2023-04-07T04:50:43.458Z,16.98
2023-04-07T04:51:43.440Z,16.94
2023-04-07T04:52:43.436Z,16.98
2023-04-07T04:53:43.417Z,16.94
2023-04-07T04:54:43.440Z,17.01
2023-04-07T04:55:43.410Z,16.94
2023-04-07T04:56:43.431Z,16.93
2023-04-07T04:57:43.426Z,16.98
2023-04-07T04:58:43.428Z,16.98
2023-04-07T04:59:43.412Z,16.91
2023-04-07T05:00:43.421Z,16.91
2023-04-07T05:01:43.482Z,16.85
2023-04-07T05:02:43.593Z,16.93
2023-04-07T05:03:43.598Z,16.94
2023-04-07T05:04:43.479Z,16.91
2023-04-07T05:05:43.375Z,16.97
2023-04-07T05:06:43.382Z,16.86
2023-04-07T05:07:43.390Z,16.94
2023-04-07T05:08:43.374Z,16.83
2023-04-07T05:09:43.354Z,16.86
2023-04-07T05:10:43.359Z,16.97
2023-04-07T05:11:43.350Z,16.97
2023-04-07T05:12:43.349Z,16.97
2023-04-07T05:13:43.342Z,16.91
2023-04-07T05:14:43.368Z,16.91
2023-04-07T05:15:43.362Z,16.93
2023-04-07T05:16:43.360Z,16.93
2023-04-07T05:17:43.378Z,16.96
2023-04-07T05:18:43.325Z,16.89
2023-04-07T05:19:43.318Z,16.83
2023-04-07T05:20:43.302Z,16.96
2023-04-07T05:21:43.329Z,16.94
2023-04-07T05:22:43.314Z,16.93
2023-04-07T05:23:43.296Z,16.93
2023-04-07T05:24:43.312Z,16.81
2023-04-07T05:25:43.286Z,16.93
2023-04-07T05:26:43.293Z,16.83
2023-04-07T05:27:43.286Z,16.96
2023-04-07T05:28:43.281Z,16.97
2023-04-07T05:29:43.287Z,16.97
2023-04-07T05:30:43.299Z,16.82
2023-04-07T05:31:43.289Z,16.91
2023-04-07T05:32:43.304Z,16.89
2023-04-07T05:33:43.260Z,16.97
2023-04-07T05:34:43.253Z,16.97
2023-04-07T05:35:43.246Z,16.82
2023-04-07T05:36:43.237Z,16.93
2023-04-07T05:37:43.240Z,16.86
2023-04-07T05:38:43.226Z,16.94
2023-04-07T05:39:43.229Z,16.94
2023-04-07T05:40:43.227Z,16.93
2023-04-07T05:41:43.213Z,16.82
2023-04-07T05:42:43.219Z,16.91
2023-04-07T05:43:43.201Z,16.96
2023-04-07T05:44:43.211Z,16.83
2023-04-07T05:45:43.231Z,16.93
2023-04-07T05:46:43.235Z,16.82
2023-04-07T05:47:43.245Z,16.86
2023-04-07T05:48:43.179Z,16.86
2023-04-07T05:49:43.174Z,16.94
2023-04-07T05:50:43.179Z,16.97
2023-04-07T05:51:43.179Z,16.79
2023-04-07T05:52:43.180Z,16.96
2023-04-07T05:53:43.150Z,16.83
2023-04-07T05:54:43.176Z,16.94
2023-04-07T05:55:43.163Z,16.93
2023-04-07T05:56:43.161Z,16.94
2023-04-07T05:57:43.137Z,16.82
2023-04-07T05:58:43.149Z,16.83
2023-04-07T05:59:43.161Z,16.79
2023-04-07T06:00:43.129Z,16.91
2023-04-07T06:01:43.218Z,16.83
2023-04-07T06:02:43.370Z,16.85
2023-04-07T06:03:43.171Z,16.82
2023-04-07T06:04:43.126Z,16.93
2023-04-07T06:05:43.233Z,16.91
2023-04-07T06:06:43.104Z,16.83
2023-04-07T06:07:43.118Z,16.82
2023-04-07T06:08:43.089Z,16.85
2023-04-07T06:09:43.094Z,16.85
2023-04-07T06:10:43.089Z,16.88
2023-04-07T06:11:43.089Z,16.85
2023-04-07T06:12:43.093Z,16.88
2023-04-07T06:13:43.132Z,16.88
2023-04-07T06:14:43.068Z,16.82
2023-04-07T06:15:43.075Z,16.86
2023-04-07T06:16:43.101Z,16.86
2023-04-07T06:17:43.072Z,16.89
2023-04-07T06:18:43.078Z,16.88
2023-04-07T06:19:43.045Z,16.83
2023-04-07T06:20:43.059Z,16.85
2023-04-07T06:21:43.029Z,16.85
2023-04-07T06:22:43.039Z,16.91
2023-04-07T06:23:43.033Z,16.88
2023-04-07T06:24:43.040Z,16.89
2023-04-07T06:25:43.037Z,16.83
2023-04-07T06:26:43.024Z,16.93
2023-04-07T06:27:43.002Z,16.83
2023-04-07T06:28:43.025Z,16.86
2023-04-07T06:29:43.011Z,16.86
2023-04-07T06:30:43.105Z,16.85
2023-04-07T06:31:42.995Z,16.81
2023-04-07T06:32:43.035Z,16.82
2023-04-07T06:33:42.974Z,16.83
2023-04-07T06:34:43.010Z,16.86
2023-04-07T06:35:42.977Z,16.83
2023-04-07T06:36:43.008Z,16.83
2023-04-07T06:37:42.955Z,16.88
2023-04-07T06:38:42.966Z,16.79
2023-04-07T06:39:42.969Z,16.86
2023-04-07T06:40:42.945Z,16.85
2023-04-07T06:41:42.952Z,16.83
2023-04-07T06:42:42.955Z,16.85
2023-04-07T06:43:42.936Z,16.82
2023-04-07T06:44:42.944Z,16.86
2023-04-07T06:45:43.030Z,16.83
2023-04-07T06:46:42.943Z,16.83
2023-04-07T06:47:42.943Z,16.81
2023-04-07T06:48:42.911Z,16.82
2023-04-07T06:49:42.921Z,16.83
2023-04-07T06:50:42.961Z,16.83
2023-04-07T06:51:42.915Z,16.86
2023-04-07T06:52:43.185Z,16.82
2023-04-07T06:53:42.900Z,16.88
2023-04-07T06:54:42.894Z,16.86
2023-04-07T06:55:42.875Z,16.86
2023-04-07T06:56:42.912Z,16.88
2023-04-07T06:57:42.866Z,16.86
2023-04-07T06:58:42.874Z,16.86
2023-04-07T06:59:42.866Z,16.82
2023-04-07T07:00:42.865Z,16.88
2023-04-07T07:01:42.911Z,16.82
2023-04-07T07:02:42.961Z,16.82
2023-04-07T07:03:42.997Z,16.85
2023-04-07T07:04:42.890Z,16.81
2023-04-07T07:05:42.838Z,16.85
2023-04-07T07:06:42.956Z,16.88
2023-04-07T07:07:42.841Z,16.81
2023-04-07T07:08:42.860Z,16.85
2023-04-07T07:09:42.838Z,16.88
2023-04-07T07:10:42.833Z,16.88
2023-04-07T07:11:42.818Z,16.86
2023-04-07T07:12:42.803Z,16.85
2023-04-07T07:13:42.811Z,16.86
2023-04-07T07:14:42.815Z,16.88
2023-04-07T07:15:42.804Z,16.85
2023-04-07T07:16:42.822Z,16.85
2023-04-07T07:17:42.835Z,16.89
2023-04-07T07:18:42.784Z,16.85
2023-04-07T07:19:42.783Z,16.86
2023-04-07T07:20:42.759Z,16.86
2023-04-07T07:21:42.761Z,16.82
2023-04-07T07:22:42.784Z,16.86
2023-04-07T07:23:42.747Z,16.85
2023-04-07T07:24:42.759Z,16.85
2023-04-07T07:25:42.759Z,16.83
2023-04-07T07:26:43.626Z,16.85
2023-04-07T07:27:42.729Z,16.82
2023-04-07T07:28:42.739Z,16.85
2023-04-07T07:29:42.730Z,16.85
2023-04-07T07:30:42.750Z,16.82
2023-04-07T07:31:42.739Z,16.89
2023-04-07T07:32:42.785Z,16.85
2023-04-07T07:33:42.724Z,16.82
2023-04-07T07:34:42.813Z,16.86
2023-04-07T07:35:42.738Z,16.82
2023-04-07T07:36:42.711Z,16.85
2023-04-07T07:37:42.711Z,16.85
2023-04-07T07:38:42.736Z,16.91
2023-04-07T07:39:42.714Z,16.83
2023-04-07T07:40:42.691Z,16.81
2023-04-07T07:41:42.670Z,16.81
2023-04-07T07:42:42.675Z,16.89
2023-04-07T07:43:42.661Z,16.85
2023-04-07T07:44:42.662Z,16.85
2023-04-07T07:45:42.669Z,16.85
2023-04-07T07:46:42.710Z,16.81
2023-04-07T07:47:42.690Z,16.82
2023-04-07T07:48:42.670Z,16.83
2023-04-07T07:49:42.641Z,16.91
2023-04-07T07:50:42.925Z,16.83
2023-04-07T07:51:42.633Z,16.89
2023-04-07T07:52:42.621Z,16.91
2023-04-07T07:53:42.628Z,16.97
2023-04-07T07:54:42.630Z,16.93
2023-04-07T07:55:42.618Z,17.01
2023-04-07T07:56:42.619Z,16.98
2023-04-07T07:57:42.620Z,17.08
2023-04-07T07:58:42.606Z,17.04
2023-04-07T07:59:42.590Z,17.03
2023-04-07T08:00:42.593Z,17.08
2023-04-07T08:01:42.618Z,17.19
2023-04-07T08:02:42.836Z,17.16
2023-04-07T08:03:42.760Z,17.15
2023-04-07T08:04:42.594Z,17.19
2023-04-07T08:05:42.579Z,17.26
2023-04-07T08:06:42.557Z,17.30
2023-04-07T08:07:42.559Z,17.43
2023-04-07T08:08:42.555Z,17.58
2023-04-07T08:09:42.560Z,17.51
2023-04-07T08:10:42.572Z,17.64
2023-04-07T08:11:42.561Z,17.58
2023-04-07T08:12:42.583Z,17.71
2023-04-07T08:13:42.538Z,17.74
2023-04-07T08:14:42.538Z,17.72
2023-04-07T08:15:42.639Z,17.89
2023-04-07T08:16:42.642Z,17.82
2023-04-07T08:17:42.558Z,17.86
2023-04-07T08:18:42.529Z,17.96
2023-04-07T08:19:42.524Z,17.95
2023-04-07T08:20:42.513Z,17.95
2023-04-07T08:21:42.508Z,18.11
2023-04-07T08:22:42.514Z,18.11
2023-04-07T08:23:42.509Z,18.17
2023-04-07T08:24:42.507Z,18.11
2023-04-07T08:25:42.490Z,18.21
2023-04-07T08:26:42.510Z,18.25
2023-04-07T08:27:42.477Z,18.27
2023-04-07T08:28:42.483Z,18.29
2023-04-07T08:29:42.520Z,18.32
2023-04-07T08:30:42.495Z,18.39
2023-04-07T08:31:42.522Z,18.39
2023-04-07T08:32:42.481Z,18.41
2023-04-07T08:33:42.465Z,18.30
2023-04-07T08:34:42.481Z,18.10
2023-04-07T08:35:42.481Z,17.95
2023-04-07T08:36:43.935Z,17.89
2023-04-07T08:37:42.442Z,17.92
2023-04-07T08:38:42.441Z,17.74
2023-04-07T08:39:42.436Z,17.52
2023-04-07T08:40:42.459Z,17.30
2023-04-07T08:41:42.470Z,17.08
2023-04-07T08:42:42.457Z,16.71
2023-04-07T08:43:42.423Z,16.49
2023-04-07T08:44:42.408Z,16.27
2023-04-07T08:45:42.417Z,16.09
2023-04-07T08:46:42.438Z,15.86
2023-04-07T08:47:42.450Z,15.59
2023-04-07T08:48:42.389Z,15.50
2023-04-07T08:49:42.405Z,15.36
2023-04-07T08:50:42.398Z,15.19
2023-04-07T08:51:42.374Z,14.98
2023-04-07T08:52:42.381Z,14.88
2023-04-07T08:53:42.384Z,14.73
2023-04-07T08:54:42.349Z,14.61
2023-04-07T08:55:42.357Z,14.46
2023-04-07T08:56:42.353Z,14.42
2023-04-07T08:57:42.344Z,14.42
2023-04-07T08:58:42.355Z,14.29
2023-04-07T08:59:42.343Z,14.27
2023-04-07T09:00:42.352Z,14.22
2023-04-07T09:01:42.486Z,14.14
2023-04-07T09:02:42.317Z,14.09
2023-04-07T09:03:42.382Z,14.06
2023-04-07T09:04:42.279Z,14.04
2023-04-07T09:05:42.274Z,14.02
2023-04-07T09:06:42.317Z,13.97
2023-04-07T09:07:42.258Z,13.99
2023-04-07T09:08:42.269Z,13.88
2023-04-07T09:09:42.261Z,13.82
2023-04-07T09:10:42.232Z,13.91
2023-04-07T09:11:42.248Z,13.85
2023-04-07T09:12:42.253Z,13.85
2023-04-07T09:13:42.214Z,14.02
2023-04-07T09:14:42.229Z,14.14
2023-04-07T09:15:42.194Z,14.15
2023-04-07T09:16:42.268Z,14.22
2023-04-07T09:17:42.214Z,14.25
2023-04-07T09:18:42.167Z,14.42
2023-04-07T09:19:42.209Z,14.47
2023-04-07T09:20:42.160Z,14.43
2023-04-07T09:21:42.165Z,14.65
2023-04-07T09:22:42.145Z,14.72
2023-04-07T09:23:42.168Z,14.80
2023-04-07T09:24:42.145Z,14.84
2023-04-07T09:25:42.142Z,14.86
2023-04-07T09:26:42.115Z,14.89
2023-04-07T09:27:42.141Z,15.06
2023-04-07T09:28:42.141Z,15.02
2023-04-07T09:29:42.099Z,14.99
2023-04-07T09:30:42.158Z,15.13
2023-04-07T09:31:42.127Z,15.14
2023-04-07T09:32:42.091Z,15.20
2023-04-07T09:33:42.070Z,15.25
2023-04-07T09:34:42.051Z,15.31
2023-04-07T09:35:42.108Z,15.20
2023-04-07T09:36:42.052Z,15.28
2023-04-07T09:37:42.072Z,15.38
2023-04-07T09:38:42.026Z,15.32
2023-04-07T09:39:42.040Z,15.34
2023-04-07T09:40:42.088Z,15.35
2023-04-07T09:41:42.060Z,15.38
2023-04-07T09:42:42.014Z,15.34
2023-04-07T09:43:42.041Z,15.35
2023-04-07T09:44:42.004Z,15.34
2023-04-07T09:45:42.018Z,15.34
2023-04-07T09:46:42.282Z,15.36
2023-04-07T09:47:42.070Z,15.41
2023-04-07T09:48:41.983Z,15.39
2023-04-07T09:49:42.021Z,15.39
2023-04-07T09:50:41.959Z,15.38
2023-04-07T09:51:41.970Z,15.41
2023-04-07T09:52:42.012Z,15.41
2023-04-07T09:53:41.934Z,15.44
2023-04-07T09:54:41.966Z,15.44
2023-04-07T09:55:41.940Z,15.46
2023-04-07T09:56:41.930Z,15.47
2023-04-07T09:57:41.923Z,15.51
2023-04-07T09:58:41.897Z,15.56
2023-04-07T09:59:41.908Z,15.60
2023-04-07T10:00:41.891Z,15.59
2023-04-07T10:01:41.943Z,15.62
2023-04-07T10:02:41.980Z,15.59
2023-04-07T10:03:41.939Z,15.68
2023-04-07T10:04:41.897Z,15.69
2023-04-07T10:05:41.866Z,15.69
2023-04-07T10:06:41.860Z,15.68
2023-04-07T10:07:42.769Z,15.80
2023-04-07T10:08:41.888Z,15.74
2023-04-07T10:09:41.847Z,15.78
2023-04-07T10:10:41.895Z,15.87
2023-04-07T10:11:41.853Z,15.89
2023-04-07T10:12:41.817Z,15.83
2023-04-07T10:13:41.828Z,15.93
2023-04-07T10:14:41.812Z,15.89
2023-04-07T10:15:41.816Z,16.01
2023-04-07T10:16:41.844Z,15.93
2023-04-07T10:17:41.846Z,16.00
2023-04-07T10:18:41.807Z,16.01
2023-04-07T10:19:41.786Z,16.00
2023-04-07T10:20:41.785Z,16.02
2023-04-07T10:21:41.767Z,15.97
2023-04-07T10:22:41.775Z,16.11
2023-04-07T10:23:41.760Z,16.12
2023-04-07T10:24:41.770Z,16.07
2023-04-07T10:25:41.779Z,16.09
2023-04-07T10:26:41.914Z,16.11
2023-04-07T10:27:41.772Z,16.11
2023-04-07T10:28:41.738Z,16.12
2023-04-07T10:29:41.753Z,16.24
2023-04-07T10:30:41.789Z,16.17
2023-04-07T10:31:41.721Z,16.21
2023-04-07T10:32:41.839Z,16.15
2023-04-07T10:33:41.727Z,16.20
2023-04-07T10:34:41.754Z,16.23
2023-04-07T10:35:41.748Z,16.20
2023-04-07T10:36:41.703Z,16.25
2023-04-07T10:37:41.766Z,16.31
2023-04-07T10:38:41.705Z,16.28
2023-04-07T10:39:41.684Z,16.35
2023-04-07T10:40:41.682Z,16.31
2023-04-07T10:41:41.724Z,16.34
2023-04-07T10:42:41.688Z,16.39
2023-04-07T10:43:41.718Z,16.34
2023-04-07T10:44:41.666Z,16.38
2023-04-07T10:45:41.668Z,16.33
2023-04-07T10:46:41.730Z,16.35
2023-04-07T10:47:41.683Z,16.35
2023-04-07T10:48:41.675Z,16.39
2023-04-07T10:49:41.645Z,16.42
2023-04-07T10:50:41.676Z,16.39
2023-04-07T10:51:41.626Z,16.45
2023-04-07T10:52:41.657Z,16.42
2023-04-07T10:53:41.699Z,16.35
2023-04-07T10:54:41.631Z,16.52
2023-04-07T10:55:41.614Z,16.49
2023-04-07T10:56:41.600Z,16.50
2023-04-07T10:57:41.611Z,16.49
2023-04-07T10:58:41.598Z,16.42
2023-04-07T10:59:41.588Z,16.45
2023-04-07T11:00:41.616Z,16.43
2023-04-07T11:01:41.619Z,16.50
2023-04-07T11:02:41.927Z,16.56
2023-04-07T11:03:41.609Z,16.50
2023-04-07T11:04:41.632Z,16.52
2023-04-07T11:05:41.554Z,16.52
2023-04-07T11:06:41.579Z,16.58
2023-04-07T11:07:41.553Z,16.48
2023-04-07T11:08:41.548Z,16.53
2023-04-07T11:09:41.565Z,16.52
2023-04-07T11:10:41.542Z,16.60
2023-04-07T11:11:41.649Z,16.60
2023-04-07T11:12:41.528Z,16.57
2023-04-07T11:13:41.543Z,16.64
2023-04-07T11:14:41.531Z,16.61
2023-04-07T11:15:41.606Z,16.58
2023-04-07T11:16:41.536Z,16.60
2023-04-07T11:17:41.545Z,16.60
2023-04-07T11:18:41.529Z,16.60
2023-04-07T11:19:41.514Z,16.63
2023-04-07T11:20:41.530Z,16.60
2023-04-07T11:21:41.503Z,16.58
2023-04-07T11:22:41.509Z,16.57
2023-04-07T11:23:41.489Z,16.67
2023-04-07T11:24:41.471Z,16.60
2023-04-07T11:25:41.484Z,16.63
2023-04-07T11:26:41.474Z,16.67
2023-04-07T11:27:41.485Z,16.57
2023-04-07T11:28:41.465Z,16.60
2023-04-07T11:29:41.485Z,16.63
2023-04-07T11:30:41.453Z,16.75
2023-04-07T11:31:41.578Z,16.64
2023-04-07T11:32:41.451Z,16.70
2023-04-07T11:33:41.449Z,16.70
2023-04-07T11:34:41.476Z,16.68
2023-04-07T11:35:41.451Z,16.66
2023-04-07T11:36:41.431Z,16.70
2023-04-07T11:37:41.417Z,16.78
2023-04-07T11:38:41.429Z,16.71
2023-04-07T11:39:41.415Z,16.70
2023-04-07T11:40:41.450Z,16.68
2023-04-07T11:41:41.412Z,16.71
2023-04-07T11:42:41.418Z,16.76
2023-04-07T11:43:41.392Z,16.75
2023-04-07T11:44:41.396Z,16.82
2023-04-07T11:45:41.402Z,16.76
2023-04-07T11:46:41.465Z,16.76
2023-04-07T11:47:41.428Z,16.82
2023-04-07T11:48:41.382Z,16.81
2023-04-07T11:49:41.368Z,16.73
2023-04-07T11:50:41.397Z,16.75
2023-04-07T11:51:41.360Z,16.79
2023-04-07T11:52:41.386Z,16.78
2023-04-07T11:53:41.353Z,16.73
2023-04-07T11:54:41.386Z,16.78
2023-04-07T11:55:41.354Z,16.76
2023-04-07T11:56:41.332Z,16.83
2023-04-07T11:57:41.346Z,16.78
2023-04-07T11:58:41.333Z,16.78
2023-04-07T11:59:41.366Z,16.81
2023-04-07T12:00:41.315Z,16.75
2023-04-07T12:01:41.392Z,16.76
2023-04-07T12:02:41.489Z,16.79
2023-04-07T12:03:41.501Z,16.73
2023-04-07T12:04:41.444Z,16.79
2023-04-07T12:05:41.296Z,16.88
2023-04-07T12:06:41.293Z,16.83
2023-04-07T12:07:41.291Z,16.86
2023-04-07T12:08:41.313Z,16.86
2023-04-07T12:09:41.285Z,16.89
2023-04-07T12:10:41.292Z,16.75
2023-04-07T12:11:41.270Z,16.83
2023-04-07T12:12:41.282Z,16.83
2023-04-07T12:13:41.298Z,16.83
2023-04-07T12:14:41.269Z,16.86
2023-04-07T12:15:41.267Z,16.86
2023-04-07T12:16:41.313Z,16.85
2023-04-07T12:17:41.320Z,16.83
2023-04-07T12:18:41.251Z,16.98
2023-04-07T12:19:41.264Z,16.94
2023-04-07T12:20:41.229Z,16.93
2023-04-07T12:21:41.230Z,16.94
2023-04-07T12:22:41.247Z,16.91
2023-04-07T12:23:41.240Z,16.98
2023-04-07T12:24:41.232Z,16.96
2023-04-07T12:25:41.222Z,16.96
2023-04-07T12:26:41.263Z,17.00
2023-04-07T12:27:43.778Z,16.96
2023-04-07T12:28:41.205Z,16.91
2023-04-07T12:29:41.206Z,17.01
2023-04-07T12:30:41.189Z,17.04
2023-04-07T12:31:41.240Z,17.08
2023-04-07T12:32:41.283Z,17.08
2023-04-07T12:33:41.213Z,17.07
2023-04-07T12:34:41.190Z,17.06
2023-04-07T12:35:41.211Z,17.03
2023-04-07T12:36:41.192Z,17.11
2023-04-07T12:37:41.197Z,17.04
2023-04-07T12:38:41.164Z,17.03
2023-04-07T12:39:41.154Z,17.06
2023-04-07T12:40:41.154Z,17.11
2023-04-07T12:41:41.170Z,17.07
2023-04-07T12:42:41.243Z,17.08
2023-04-07T12:43:41.183Z,17.07
2023-04-07T12:44:41.202Z,17.04
2023-04-07T12:45:41.164Z,17.04
2023-04-07T12:46:41.132Z,17.06
2023-04-07T12:47:41.160Z,17.08
2023-04-07T12:48:41.129Z,17.08
2023-04-07T12:49:41.113Z,17.11
2023-04-07T12:50:41.141Z,17.12
2023-04-07T12:51:41.107Z,17.11
2023-04-07T12:52:41.103Z,17.06